Time;durP1;ratioP1;P1;durP2;ratioP2;P2;SDS_P1;SDS_P2;PMS_P1;PMS_P2;Temp;Humidity;BMP_temperature;BMP_pressure;BME280_temperature;BME280_humidity;BME280_pressure;Samples;Min_cycle;Max_cycle;Signal;HPM_P1;HPM_P2
2022/10/22 00:01:44;;;;;;;;;;;13.70;99.90;;;;;;5036241;28;19983;-79
2022/10/22 00:09:59;;;;;;;;;;;13.80;99.90;;;;;;5021848;28;19925;-79
2022/10/22 00:16:11;;;;;;;;;;;13.80;99.90;;;;;;5033171;28;19925;-80
2022/10/22 00:22:10;;;;;;;;;;;13.80;99.90;;;;;;5054924;28;19928;-79
2022/10/22 00:34:05;;;;;;;;;;;13.80;99.90;;;;;;5059922;28;19965;-80
2022/10/22 00:39:59;;;;;;;;;;;13.80;99.90;;;;;;5007872;28;19929;-79
2022/10/22 00:43:14;;;;;;;;;;;13.80;99.90;;;;;;5039808;28;19983;-79
2022/10/22 00:46:16;;;;;;;;;;;13.80;99.90;;;;;;5056546;28;19968;-79
2022/10/22 00:52:20;;;;;;;;;;;13.80;99.90;;;;;;5058046;28;19935;-80
2022/10/22 00:55:10;;;;;;;;;;;13.70;99.90;;;;;;5053315;28;20306;-80
2022/10/22 01:04:24;;;;;;;;;;;13.60;99.90;;;;;;4985191;28;19922;-79
2022/10/22 01:10:18;;;;;;;;;;;13.60;99.90;;;;;;5014365;28;19929;-79
2022/10/22 01:13:18;;;;;;;;;;;13.60;99.90;;;;;;5001023;28;19933;-78
2022/10/22 01:16:04;;;;;;;;;;;13.60;99.90;;;;;;4992177;28;19929;-79
2022/10/22 01:18:46;;;;;;;;;;;13.60;99.90;;;;;;5021682;28;19951;-79
2022/10/22 01:21:31;;;;;;;;;;;13.60;99.90;;;;;;5065894;28;19929;-78
2022/10/22 01:24:23;;;;;;;;;;;13.60;99.90;;;;;;5062113;28;19925;-79
2022/10/22 01:27:13;;;;;;;;;;;13.60;99.90;;;;;;5063253;28;19936;-79
2022/10/22 01:29:49;;;;;;;;;;;13.60;99.90;;;;;;5061356;28;19935;-78
2022/10/22 01:32:23;;;;;;;;;;;13.60;99.90;;;;;;5064439;28;19935;-79
2022/10/22 01:34:55;;;;;;;;;;;13.60;99.90;;;;;;5067626;28;19952;-78
2022/10/22 01:37:30;;;;;;;;;;;13.70;99.90;;;;;;5068830;28;20155;-78
2022/10/22 01:40:04;;;;;;;;;;;13.70;99.90;;;;;;5071257;28;19929;-78
2022/10/22 01:42:36;;;;;;;;;;;13.70;99.90;;;;;;5067386;28;19921;-79
2022/10/22 01:45:14;;;;;;;;;;;13.70;99.90;;;;;;5067563;28;19924;-79
2022/10/22 01:47:47;;;;;;;;;;;13.70;99.90;;;;;;5068461;28;19959;-79
2022/10/22 01:50:38;;;;;;;;;;;13.70;99.90;;;;;;5066963;28;19995;-79
2022/10/22 01:53:24;;;;;;;;;;;13.70;99.90;;;;;;5067681;28;19963;-79
2022/10/22 01:56:09;;;;;;;;;;;13.80;99.90;;;;;;5059754;28;19929;-79
2022/10/22 01:58:53;;;;;;;;;;;13.80;99.90;;;;;;5059670;28;19925;-79
2022/10/22 02:01:28;;;;;;;;;;;13.80;99.90;;;;;;5058001;28;19951;-79
2022/10/22 02:04:01;;;;;;;;;;;13.80;99.90;;;;;;5056399;28;20321;-79
2022/10/22 02:09:17;;;;;;;;;;;13.80;99.90;;;;;;5000452;28;19960;-79
2022/10/22 02:11:52;;;;;;;;;;;13.80;99.90;;;;;;4999304;28;19936;-79
2022/10/22 02:14:43;;;;;;;;;;;13.90;99.90;;;;;;5029485;28;19925;-79
2022/10/22 02:17:30;;;;;;;;;;;13.90;99.90;;;;;;5056863;28;20408;-80
2022/10/22 02:20:06;;;;;;;;;;;14.00;99.90;;;;;;5056706;28;19924;-80
2022/10/22 02:22:35;;;;;;;;;;;14.00;99.90;;;;;;5072351;28;20004;-80
2022/10/22 02:25:23;;;;;;;;;;;14.00;99.90;;;;;;5076036;28;20372;-81
2022/10/22 02:28:05;;;;;;;;;;;14.00;99.90;;;;;;5074430;28;19924;-81
2022/10/22 02:30:39;;;;;;;;;;;14.10;99.90;;;;;;5075378;28;19931;-79
2022/10/22 02:33:35;;;;;;;;;;;14.20;99.90;;;;;;5079414;28;20383;-80
2022/10/22 02:36:08;;;;;;;;;;;14.20;99.90;;;;;;5062434;28;19928;-79
2022/10/22 02:41:47;;;;;;;;;;;14.20;99.90;;;;;;5051806;28;20381;-79
2022/10/22 02:44:34;;;;;;;;;;;14.30;99.90;;;;;;5053843;28;20015;-79
2022/10/22 02:47:10;;;;;;;;;;;14.30;99.90;;;;;;5059832;28;20277;-79
2022/10/22 02:49:52;;;;;;;;;;;14.30;99.90;;;;;;5051888;28;20015;-79
2022/10/22 02:52:34;;;;;;;;;;;14.40;99.90;;;;;;5055826;28;19929;-79
2022/10/22 02:55:09;;;;;;;;;;;14.40;99.90;;;;;;5062508;28;19932;-79
2022/10/22 02:57:39;;;;;;;;;;;14.30;99.90;;;;;;5061392;28;19928;-79
2022/10/22 03:00:19;;;;;;;;;;;14.30;99.90;;;;;;5059161;28;20308;-78
2022/10/22 03:02:50;;;;;;;;;;;14.30;99.90;;;;;;5055423;28;20509;-79
2022/10/22 03:05:32;;;;;;;;;;;14.20;99.90;;;;;;5070847;28;19929;-78
2022/10/22 03:08:04;;;;;;;;;;;14.20;99.90;;;;;;5057486;28;19975;-80
2022/10/22 03:10:31;;;;;;;;;;;14.20;99.90;;;;;;5063073;28;19925;-80
2022/10/22 03:13:10;;;;;;;;;;;14.20;99.90;;;;;;5057124;28;19925;-80
2022/10/22 03:15:46;;;;;;;;;;;14.20;99.90;;;;;;5068279;28;19928;-80
2022/10/22 03:18:15;;;;;;;;;;;14.20;99.90;;;;;;5071457;28;19986;-81
2022/10/22 03:21:08;;;;;;;;;;;14.20;99.90;;;;;;5065327;28;19936;-81
2022/10/22 03:23:45;;;;;;;;;;;14.20;99.90;;;;;;5056691;28;20419;-80
2022/10/22 03:26:13;;;;;;;;;;;14.10;99.90;;;;;;5054686;28;19928;-80
2022/10/22 03:28:42;;;;;;;;;;;14.00;99.90;;;;;;5063424;28;19979;-80
2022/10/22 03:31:25;;;;;;;;;;;14.00;99.90;;;;;;5056002;28;19939;-80
2022/10/22 03:33:59;;;;;;;;;;;14.00;99.90;;;;;;5059833;28;19928;-80
2022/10/22 03:36:41;;;;;;;;;;;13.90;99.90;;;;;;5052611;28;20062;-79
2022/10/22 03:39:20;;;;;;;;;;;13.90;99.90;;;;;;5052773;28;19972;-79
2022/10/22 03:41:57;;;;;;;;;;;13.80;99.90;;;;;;5048567;28;19964;-81
2022/10/22 03:44:42;;;;;;;;;;;13.80;99.90;;;;;;5064827;28;19948;-82
2022/10/22 03:47:18;;;;;;;;;;;13.80;99.90;;;;;;5055627;28;19925;-80
2022/10/22 03:49:52;;;;;;;;;;;13.70;99.90;;;;;;5061702;28;19924;-79
2022/10/22 03:55:01;;;;;;;;;;;13.70;99.90;;;;;;5056863;28;19940;-80
2022/10/22 03:57:34;;;;;;;;;;;13.70;99.90;;;;;;5058906;28;19996;-80
2022/10/22 04:00:09;;;;;;;;;;;11.60;99.90;;;;;;5055944;28;19929;-79
2022/10/22 04:02:56;;;;;;;;;;;13.80;99.90;;;;;;5058641;28;20023;-80
2022/10/22 04:05:31;;;;;;;;;;;13.80;99.90;;;;;;5054173;28;19948;-81
2022/10/22 04:08:14;;;;;;;;;;;13.90;99.90;;;;;;5053450;28;19935;-79
2022/10/22 04:11:03;;;;;;;;;;;14.00;99.90;;;;;;5061041;28;19929;-79
2022/10/22 04:13:34;;;;;;;;;;;14.00;99.90;;;;;;5051486;28;19968;-80
2022/10/22 04:16:24;;;;;;;;;;;14.00;99.90;;;;;;5062109;28;19974;-80
2022/10/22 04:18:52;;;;;;;;;;;14.00;99.90;;;;;;5054919;28;20008;-79
2022/10/22 04:21:25;;;;;;;;;;;14.00;99.90;;;;;;5054223;28;19964;-79
2022/10/22 04:23:55;;;;;;;;;;;13.90;99.90;;;;;;5059723;28;20038;-79
2022/10/22 04:26:34;;;;;;;;;;;13.80;99.90;;;;;;5050952;28;20003;-78
2022/10/22 04:29:02;;;;;;;;;;;13.80;99.90;;;;;;5057107;28;19971;-78
2022/10/22 04:31:33;;;;;;;;;;;13.80;99.90;;;;;;5072168;28;20363;-80
2022/10/22 04:34:06;;;;;;;;;;;13.80;99.90;;;;;;5059915;28;19928;-80
2022/10/22 04:36:37;;;;;;;;;;;13.80;99.90;;;;;;5055498;28;20250;-80
2022/10/22 04:39:10;;;;;;;;;;;13.70;99.90;;;;;;5053793;28;19929;-80
2022/10/22 04:44:31;;;;;;;;;;;13.70;99.90;;;;;;5048379;28;19948;-80
2022/10/22 04:47:01;;;;;;;;;;;13.60;99.90;;;;;;5061124;28;20390;-80
2022/10/22 04:49:35;;;;;;;;;;;13.50;99.90;;;;;;5054369;28;19924;-80
2022/10/22 04:52:07;;;;;;;;;;;13.50;99.90;;;;;;5055743;28;20023;-80
2022/10/22 04:57:33;;;;;;;;;;;13.40;99.90;;;;;;5069388;28;19935;-80
2022/10/22 05:00:17;;;;;;;;;;;13.30;99.90;;;;;;5064719;28;19929;-80
2022/10/22 05:02:54;;;;;;;;;;;13.40;99.90;;;;;;5058477;28;19944;-82
2022/10/22 05:05:32;;;;;;;;;;;13.30;99.90;;;;;;5056365;28;19929;-78
2022/10/22 05:07:59;;;;;;;;;;;13.30;99.90;;;;;;5053958;28;19929;-79
2022/10/22 05:10:33;;;;;;;;;;;13.20;99.90;;;;;;5059135;28;19929;-79
2022/10/22 05:13:20;;;;;;;;;;;13.20;99.90;;;;;;5060169;28;20451;-78
2022/10/22 05:15:56;;;;;;;;;;;13.20;99.90;;;;;;5057156;28;19943;-79
2022/10/22 05:18:37;;;;;;;;;;;11.50;99.90;;;;;;5047617;28;19925;-79
2022/10/22 05:21:04;;;;;;;;;;;13.20;99.90;;;;;;5062409;28;20022;-80
2022/10/22 05:23:31;;;;;;;;;;;13.20;99.90;;;;;;5059856;28;19939;-80
2022/10/22 05:26:01;;;;;;;;;;;13.20;99.90;;;;;;5058110;28;19929;-80
2022/10/22 05:28:29;;;;;;;;;;;13.20;99.90;;;;;;5067003;28;19929;-79
2022/10/22 05:30:58;;;;;;;;;;;13.10;99.90;;;;;;5063090;28;20400;-79
2022/10/22 05:33:25;;;;;;;;;;;13.10;99.90;;;;;;5052092;28;19925;-79
2022/10/22 05:35:52;;;;;;;;;;;13.10;99.90;;;;;;5061676;28;19972;-79
2022/10/22 05:38:19;;;;;;;;;;;13.10;99.90;;;;;;5053667;28;20359;-80
2022/10/22 05:40:46;;;;;;;;;;;13.10;99.90;;;;;;5056588;28;19928;-80
2022/10/22 05:43:13;;;;;;;;;;;13.00;99.90;;;;;;5064402;28;19932;-80
2022/10/22 05:45:42;;;;;;;;;;;13.00;99.90;;;;;;5063934;28;19928;-80
2022/10/22 05:48:09;;;;;;;;;;;12.90;99.90;;;;;;5056473;28;19960;-80
2022/10/22 05:50:36;;;;;;;;;;;12.90;99.90;;;;;;5053853;28;19929;-79
2022/10/22 05:53:03;;;;;;;;;;;12.90;99.90;;;;;;5051632;28;20133;-80
2022/10/22 05:55:31;;;;;;;;;;;12.90;99.90;;;;;;5052232;28;20389;-80
2022/10/22 05:57:58;;;;;;;;;;;12.90;99.90;;;;;;5053364;28;19929;-79
2022/10/22 06:00:26;;;;;;;;;;;12.90;99.90;;;;;;5059989;28;19979;-83
2022/10/22 06:02:54;;;;;;;;;;;12.90;99.90;;;;;;5049269;28;20032;-82
2022/10/22 06:05:21;;;;;;;;;;;12.90;99.90;;;;;;5049681;28;19978;-82
2022/10/22 06:07:48;;;;;;;;;;;12.90;99.90;;;;;;5060717;28;19978;-80
2022/10/22 06:10:16;;;;;;;;;;;13.00;99.90;;;;;;5069097;28;19925;-81
2022/10/22 06:12:44;;;;;;;;;;;13.00;99.90;;;;;;5053477;28;19929;-81
2022/10/22 06:15:12;;;;;;;;;;;13.00;99.90;;;;;;5049781;28;19931;-79
2022/10/22 06:17:38;;;;;;;;;;;13.00;99.90;;;;;;5062794;28;19932;-80
2022/10/22 06:20:08;;;;;;;;;;;13.10;99.90;;;;;;5050433;28;19979;-79
2022/10/22 06:22:35;;;;;;;;;;;13.10;99.90;;;;;;5054751;28;19936;-79
2022/10/22 06:25:02;;;;;;;;;;;13.20;99.90;;;;;;5052922;28;19925;-79
2022/10/22 06:27:29;;;;;;;;;;;13.30;99.90;;;;;;5054336;28;19928;-77
2022/10/22 06:29:56;;;;;;;;;;;13.30;99.90;;;;;;5051291;28;19979;-77
2022/10/22 06:32:23;;;;;;;;;;;13.40;99.90;;;;;;5052186;28;20419;-76
2022/10/22 06:34:50;;;;;;;;;;;13.40;99.90;;;;;;5057134;28;19925;-77
2022/10/22 06:37:40;;;;;;;;;;;13.50;99.90;;;;;;5052492;28;19966;-78
2022/10/22 06:40:21;;;;;;;;;;;13.60;99.90;;;;;;5048799;28;20023;-78
2022/10/22 06:43:06;;;;;;;;;;;13.60;99.90;;;;;;5053416;28;19929;-78
2022/10/22 06:45:44;;;;;;;;;;;13.60;99.90;;;;;;5046357;28;19925;-77
2022/10/22 06:51:12;;;;;;;;;;;13.90;99.90;;;;;;5056703;28;19982;-77
2022/10/22 06:53:49;;;;;;;;;;;14.00;99.90;;;;;;5054646;28;19928;-76
2022/10/22 06:56:35;;;;;;;;;;;14.20;99.90;;;;;;5054532;28;19924;-77
2022/10/22 06:59:08;;;;;;;;;;;14.50;99.90;;;;;;5051567;28;19935;-77
2022/10/22 07:01:38;;;;;;;;;;;14.90;99.90;;;;;;5050177;28;19940;-77
2022/10/22 07:04:10;;;;;;;;;;;15.40;99.90;;;;;;5050886;28;19968;-79
2022/10/22 07:06:45;;;;;;;;;;;15.90;99.90;;;;;;5057534;28;19929;-78
2022/10/22 07:09:20;;;;;;;;;;;16.50;99.90;;;;;;5064559;28;20004;-77
2022/10/22 07:11:47;;;;;;;;;;;17.10;99.90;;;;;;5059921;28;19932;-78
2022/10/22 07:14:14;;;;;;;;;;;17.60;99.90;;;;;;5048441;28;20381;-77
2022/10/22 07:16:42;;;;;;;;;;;18.10;99.90;;;;;;5053595;28;20373;-80
2022/10/22 07:19:09;;;;;;;;;;;18.50;99.90;;;;;;5056187;28;19941;-79
2022/10/22 07:21:36;;;;;;;;;;;18.80;99.90;;;;;;5053819;28;19929;-77
2022/10/22 07:24:03;;;;;;;;;;;19.20;99.90;;;;;;5052127;28;19932;-79
2022/10/22 07:26:31;;;;;;;;;;;19.30;99.90;;;;;;5054626;28;19990;-77
2022/10/22 07:29:02;;;;;;;;;;;19.20;99.90;;;;;;5050279;28;19965;-79
2022/10/22 07:31:30;;;;;;;;;;;19.00;99.90;;;;;;5055928;28;19932;-78
2022/10/22 07:33:57;;;;;;;;;;;18.70;99.90;;;;;;5046878;28;20043;-78
2022/10/22 07:36:24;;;;;;;;;;;18.40;99.90;;;;;;5054061;28;19932;-78
2022/10/22 07:38:54;;;;;;;;;;;18.20;99.90;;;;;;5049883;28;19952;-78
2022/10/22 07:41:22;;;;;;;;;;;18.10;99.90;;;;;;5047681;28;20331;-78
2022/10/22 07:43:50;;;;;;;;;;;17.90;99.90;;;;;;5056599;28;20307;-79
2022/10/22 07:46:17;;;;;;;;;;;17.80;99.90;;;;;;5052581;28;19947;-79
2022/10/22 07:48:44;;;;;;;;;;;17.80;99.90;;;;;;5052015;28;20384;-76
2022/10/22 07:51:11;;;;;;;;;;;17.80;99.90;;;;;;5049607;28;19928;-76
2022/10/22 07:53:38;;;;;;;;;;;17.90;99.90;;;;;;5059363;28;20436;-76
2022/10/22 07:56:05;;;;;;;;;;;17.80;99.90;;;;;;5057526;28;20393;-76
2022/10/22 07:58:32;;;;;;;;;;;17.90;99.90;;;;;;5051125;28;19928;-77
2022/10/22 08:01:01;;;;;;;;;;;17.50;99.90;;;;;;5050723;28;20033;-76
2022/10/22 08:03:29;;;;;;;;;;;17.90;99.90;;;;;;5062095;28;19928;-76
2022/10/22 08:05:57;;;;;;;;;;;17.90;99.90;;;;;;5053699;28;20046;-77
2022/10/22 08:08:25;;;;;;;;;;;17.90;99.90;;;;;;5054965;28;19928;-77
2022/10/22 08:10:53;;;;;;;;;;;18.10;99.90;;;;;;5056132;28;19994;-77
2022/10/22 08:13:19;;;;;;;;;;;18.20;99.90;;;;;;5051240;28;19925;-77
2022/10/22 08:15:50;;;;;;;;;;;18.30;99.90;;;;;;5055935;28;20426;-77
2022/10/22 08:18:18;;;;;;;;;;;18.30;99.90;;;;;;5053672;28;20698;-77
2022/10/22 08:20:45;;;;;;;;;;;18.20;99.90;;;;;;5049860;28;19936;-76
2022/10/22 08:23:15;;;;;;;;;;;18.10;99.90;;;;;;5059935;28;19936;-77
2022/10/22 08:25:42;;;;;;;;;;;18.00;99.90;;;;;;5053895;28;20449;-77
2022/10/22 08:28:09;;;;;;;;;;;17.90;99.90;;;;;;5055196;28;19951;-77
2022/10/22 08:30:37;;;;;;;;;;;17.80;99.90;;;;;;5046887;28;20006;-78
2022/10/22 08:33:04;;;;;;;;;;;17.80;99.90;;;;;;5052644;28;20641;-78
2022/10/22 08:35:33;;;;;;;;;;;17.70;99.90;;;;;;5048078;28;20483;-78
2022/10/22 08:38:00;;;;;;;;;;;17.70;99.90;;;;;;5044846;28;20031;-78
2022/10/22 08:40:30;;;;;;;;;;;17.60;99.90;;;;;;5050557;28;19971;-77
2022/10/22 08:43:13;;;;;;;;;;;17.60;99.90;;;;;;5060178;28;19935;-77
2022/10/22 08:45:44;;;;;;;;;;;17.60;99.90;;;;;;5048113;28;20025;-78
2022/10/22 08:48:17;;;;;;;;;;;17.60;99.90;;;;;;5054134;28;19982;-78
2022/10/22 08:50:46;;;;;;;;;;;17.60;99.90;;;;;;5053580;28;20086;-78
2022/10/22 08:53:14;;;;;;;;;;;17.70;99.90;;;;;;5064123;28;19969;-76
2022/10/22 08:55:41;;;;;;;;;;;17.70;99.90;;;;;;5049595;28;20396;-78
2022/10/22 08:58:17;;;;;;;;;;;17.90;99.90;;;;;;5056906;28;20494;-78
2022/10/22 09:00:45;;;;;;;;;;;17.90;99.90;;;;;;5059516;28;20395;-78
2022/10/22 09:03:27;;;;;;;;;;;18.00;99.90;;;;;;5053371;28;19928;-77
2022/10/22 09:06:02;;;;;;;;;;;18.10;99.90;;;;;;5051483;28;20479;-78
2022/10/22 09:08:30;;;;;;;;;;;18.20;99.90;;;;;;5041873;28;19936;-78
2022/10/22 09:11:01;;;;;;;;;;;18.40;99.90;;;;;;5044188;28;19963;-78
2022/10/22 09:13:28;;;;;;;;;;;18.40;99.90;;;;;;5053307;28;19980;-77
2022/10/22 09:15:57;;;;;;;;;;;18.50;99.90;;;;;;5047327;28;19941;-79
2022/10/22 09:18:30;;;;;;;;;;;18.60;99.90;;;;;;5048411;28;19987;-77
2022/10/22 09:21:04;;;;;;;;;;;18.70;99.90;;;;;;5066886;28;19935;-79
2022/10/22 09:23:34;;;;;;;;;;;18.70;99.90;;;;;;5044694;28;20090;-78
2022/10/22 09:26:02;;;;;;;;;;;18.70;99.90;;;;;;5048356;28;19986;-78
2022/10/22 09:28:29;;;;;;;;;;;18.70;99.90;;;;;;5048146;28;19928;-78
2022/10/22 09:30:56;;;;;;;;;;;18.70;99.90;;;;;;5066818;28;19929;-77
2022/10/22 09:33:25;;;;;;;;;;;18.70;99.90;;;;;;5050957;28;19929;-77
2022/10/22 09:35:53;;;;;;;;;;;18.60;99.90;;;;;;5064164;28;19935;-77
2022/10/22 09:38:24;;;;;;;;;;;18.60;99.90;;;;;;5047214;28;19932;-77
2022/10/22 09:40:52;;;;;;;;;;;18.60;99.90;;;;;;5048626;28;19928;-76
2022/10/22 09:43:20;;;;;;;;;;;18.60;99.90;;;;;;5047770;28;20373;-75
2022/10/22 09:45:47;;;;;;;;;;;18.60;99.90;;;;;;5053510;28;19928;-77
2022/10/22 09:48:19;;;;;;;;;;;18.70;99.90;;;;;;5045739;28;19925;-77
2022/10/22 09:50:47;;;;;;;;;;;18.80;99.90;;;;;;5048520;28;19939;-76
2022/10/22 09:53:17;;;;;;;;;;;18.90;99.90;;;;;;5050494;28;19937;-75
2022/10/22 09:55:49;;;;;;;;;;;19.00;99.90;;;;;;5047240;28;19955;-76
2022/10/22 09:58:17;;;;;;;;;;;19.10;99.90;;;;;;5051526;28;19962;-75
2022/10/22 10:00:45;;;;;;;;;;;19.30;99.90;;;;;;5049548;28;19935;-76
2022/10/22 10:03:16;;;;;;;;;;;19.30;99.90;;;;;;5049904;28;19933;-77
2022/10/22 10:05:46;;;;;;;;;;;19.50;99.90;;;;;;5051273;28;20562;-77
2022/10/22 10:08:15;;;;;;;;;;;19.60;99.90;;;;;;5057458;28;19940;-78
2022/10/22 10:10:45;;;;;;;;;;;19.70;99.90;;;;;;5064599;28;19929;-77
2022/10/22 10:13:20;;;;;;;;;;;19.80;99.90;;;;;;5050122;28;19936;-77
2022/10/22 10:15:51;;;;;;;;;;;19.90;99.90;;;;;;5052618;28;20392;-78
2022/10/22 10:18:23;;;;;;;;;;;20.00;99.90;;;;;;5060239;28;19955;-77
2022/10/22 10:20:54;;;;;;;;;;;20.00;99.90;;;;;;5051981;28;19925;-78
2022/10/22 10:23:24;;;;;;;;;;;20.00;99.90;;;;;;5044864;28;19932;-77
2022/10/22 10:25:56;;;;;;;;;;;19.90;99.90;;;;;;5056969;28;19929;-76
2022/10/22 10:28:32;;;;;;;;;;;19.90;99.90;;;;;;5052357;28;20047;-76
2022/10/22 10:31:02;;;;;;;;;;;19.80;99.90;;;;;;5049778;28;19928;-77
2022/10/22 10:33:33;;;;;;;;;;;19.80;99.90;;;;;;5049680;28;19928;-76
2022/10/22 10:36:03;;;;;;;;;;;19.90;99.90;;;;;;5053325;28;19929;-76
2022/10/22 10:38:45;;;;;;;;;;;20.00;99.90;;;;;;5050633;28;19928;-77
2022/10/22 10:41:17;;;;;;;;;;;20.20;99.90;;;;;;5048620;28;19925;-76
2022/10/22 10:43:51;;;;;;;;;;;20.20;99.90;;;;;;5049857;28;19948;-77
2022/10/22 10:46:23;;;;;;;;;;;20.20;99.90;;;;;;5049250;28;20544;-76
2022/10/22 10:48:54;;;;;;;;;;;20.20;99.90;;;;;;5050291;28;20475;-77
2022/10/22 10:51:33;;;;;;;;;;;20.20;99.90;;;;;;5052990;28;19990;-77
2022/10/22 10:54:06;;;;;;;;;;;20.30;99.90;;;;;;5051118;28;19924;-77
2022/10/22 10:56:37;;;;;;;;;;;20.40;99.90;;;;;;5049460;28;20027;-77
2022/10/22 10:59:11;;;;;;;;;;;20.50;99.90;;;;;;5049167;28;19933;-77
2022/10/22 11:01:42;;;;;;;;;;;20.50;99.90;;;;;;5051192;28;19924;-76
2022/10/22 11:04:30;;;;;;;;;;;20.40;99.90;;;;;;5050602;28;19929;-76
2022/10/22 11:06:59;;;;;;;;;;;20.50;99.90;;;;;;5035149;28;20020;-77
2022/10/22 11:09:28;;;;;;;;;;;20.50;99.90;;;;;;5050296;28;20443;-76
2022/10/22 11:11:58;;;;;;;;;;;20.50;99.90;;;;;;5049195;28;19929;-76
2022/10/22 11:14:30;;;;;;;;;;;20.50;99.90;;;;;;5051074;28;19929;-76
2022/10/22 11:17:00;;;;;;;;;;;20.50;99.90;;;;;;5051102;28;19994;-76
2022/10/22 11:19:30;;;;;;;;;;;20.60;99.90;;;;;;5058430;28;20336;-77
2022/10/22 11:21:59;;;;;;;;;;;20.60;99.90;;;;;;5051134;28;19937;-78
2022/10/22 11:24:29;;;;;;;;;;;20.70;99.90;;;;;;5048497;28;20023;-76
2022/10/22 11:26:57;;;;;;;;;;;20.60;99.90;;;;;;5051477;28;19928;-77
2022/10/22 11:29:26;;;;;;;;;;;20.50;99.90;;;;;;5055476;28;20401;-77
2022/10/22 11:31:54;;;;;;;;;;;20.50;99.90;;;;;;5058296;28;20670;-76
2022/10/22 11:34:24;;;;;;;;;;;20.40;99.90;;;;;;5055051;28;20351;-76
2022/10/22 11:36:52;;;;;;;;;;;20.30;99.90;;;;;;5048348;28;19986;-77
2022/10/22 11:39:30;;;;;;;;;;;20.20;99.90;;;;;;5054449;28;20360;-76
2022/10/22 11:41:58;;;;;;;;;;;20.10;99.90;;;;;;5057738;28;19928;-77
2022/10/22 11:44:24;;;;;;;;;;;20.10;99.90;;;;;;5047303;28;19925;-77
2022/10/22 11:46:57;;;;;;;;;;;20.10;99.90;;;;;;5048676;28;19998;-76
2022/10/22 11:49:26;;;;;;;;;;;19.90;99.90;;;;;;5058445;28;20438;-76
2022/10/22 11:52:06;;;;;;;;;;;19.90;99.90;;;;;;5052718;28;19924;-76
2022/10/22 11:54:42;;;;;;;;;;;19.90;99.90;;;;;;5049119;28;19957;-76
2022/10/22 11:57:27;;;;;;;;;;;19.90;99.90;;;;;;5056887;28;19986;-77
2022/10/22 11:59:56;;;;;;;;;;;20.00;99.90;;;;;;5043207;28;19929;-76
2022/10/22 12:02:43;;;;;;;;;;;20.00;99.90;;;;;;5054679;28;19932;-76
2022/10/22 12:05:17;;;;;;;;;;;20.00;99.90;;;;;;5050793;28;19935;-76
2022/10/22 12:07:51;;;;;;;;;;;20.00;99.90;;;;;;5048007;28;19965;-78
2022/10/22 12:10:19;;;;;;;;;;;20.10;99.90;;;;;;5047930;28;19932;-78
2022/10/22 12:12:52;;;;;;;;;;;20.10;99.90;;;;;;5055875;28;19983;-78
2022/10/22 12:15:23;;;;;;;;;;;20.10;99.90;;;;;;5046149;28;19933;-78
2022/10/22 12:17:56;;;;;;;;;;;20.10;99.90;;;;;;5059267;28;20008;-78
2022/10/22 12:20:25;;;;;;;;;;;20.10;99.90;;;;;;5044006;28;19971;-78
2022/10/22 12:22:52;;;;;;;;;;;20.10;99.90;;;;;;5044345;28;19964;-79
2022/10/22 12:25:24;;;;;;;;;;;20.10;99.90;;;;;;5050159;28;20292;-79
2022/10/22 12:27:52;;;;;;;;;;;20.10;99.90;;;;;;5044607;28;19928;-78
2022/10/22 12:30:21;;;;;;;;;;;20.20;99.90;;;;;;5048652;28;19943;-78
2022/10/22 12:32:48;;;;;;;;;;;20.20;99.90;;;;;;5055332;28;19943;-78
2022/10/22 12:35:17;;;;;;;;;;;20.20;99.90;;;;;;5055808;28;20306;-79
2022/10/22 12:37:44;;;;;;;;;;;20.20;99.90;;;;;;5047966;28;19936;-79
2022/10/22 12:40:18;;;;;;;;;;;20.30;99.90;;;;;;5047863;28;19987;-79
2022/10/22 12:42:49;;;;;;;;;;;20.30;99.90;;;;;;5052741;28;20458;-79
2022/10/22 12:45:16;;;;;;;;;;;20.40;99.90;;;;;;5050961;28;19933;-80
2022/10/22 12:47:45;;;;;;;;;;;20.50;99.90;;;;;;5055265;28;20396;-79
2022/10/22 12:50:17;;;;;;;;;;;20.50;99.90;;;;;;5053022;28;19928;-80
2022/10/22 12:52:44;;;;;;;;;;;20.50;99.90;;;;;;5065074;28;20015;-79
2022/10/22 12:55:15;;;;;;;;;;;20.60;99.90;;;;;;5052134;28;19952;-80
2022/10/22 12:57:42;;;;;;;;;;;20.60;99.90;;;;;;5048360;28;19925;-80
2022/10/22 13:00:23;;;;;;;;;;;20.60;99.90;;;;;;5048896;28;19931;-79
2022/10/22 13:02:50;;;;;;;;;;;20.70;99.90;;;;;;5051765;28;19913;-80
2022/10/22 13:05:22;;;;;;;;;;;20.70;99.90;;;;;;5061004;28;19936;-79
2022/10/22 13:07:50;;;;;;;;;;;20.60;99.90;;;;;;5062795;28;19932;-80
2022/10/22 13:10:19;;;;;;;;;;;20.70;99.90;;;;;;5057268;28;19928;-80
2022/10/22 13:12:49;;;;;;;;;;;20.70;99.90;;;;;;5063180;28;19924;-81
2022/10/22 13:15:20;;;;;;;;;;;20.80;99.90;;;;;;5060745;28;19937;-81
2022/10/22 13:17:47;;;;;;;;;;;20.70;99.90;;;;;;5056300;28;20296;-80
2022/10/22 13:20:16;;;;;;;;;;;20.60;99.90;;;;;;5055849;28;20016;-80
2022/10/22 13:22:54;;;;;;;;;;;20.60;99.90;;;;;;5060679;28;19929;-80
2022/10/22 13:25:23;;;;;;;;;;;20.50;99.90;;;;;;5053271;28;19940;-80
2022/10/22 13:27:52;;;;;;;;;;;20.30;99.90;;;;;;5052184;28;19924;-82
2022/10/22 13:30:20;;;;;;;;;;;20.20;99.90;;;;;;5056661;28;19929;-80
2022/10/22 13:32:51;;;;;;;;;;;20.20;99.90;;;;;;5053418;28;20627;-79
2022/10/22 13:35:20;;;;;;;;;;;20.20;99.90;;;;;;5051325;28;19929;-79
2022/10/22 13:37:47;;;;;;;;;;;20.30;99.90;;;;;;5055150;28;19929;-79
2022/10/22 13:40:16;;;;;;;;;;;20.40;99.90;;;;;;5056461;28;19924;-79
2022/10/22 13:42:43;;;;;;;;;;;20.40;99.90;;;;;;5064470;28;20441;-79
2022/10/22 13:45:10;;;;;;;;;;;20.30;99.90;;;;;;5060431;28;19964;-79
2022/10/22 13:47:37;;;;;;;;;;;20.20;99.90;;;;;;5054577;28;20050;-79
2022/10/22 13:50:10;;;;;;;;;;;20.20;99.90;;;;;;5053620;28;19948;-79
2022/10/22 13:52:40;;;;;;;;;;;20.10;99.90;;;;;;5055233;28;20296;-79
2022/10/22 13:55:13;;;;;;;;;;;20.10;99.90;;;;;;5060375;28;19940;-80
2022/10/22 13:57:41;;;;;;;;;;;20.00;99.90;;;;;;5055287;28;20002;-79
2022/10/22 14:00:08;;;;;;;;;;;;;;;;;;5064894;28;20420;-79
2022/10/22 14:02:39;;;;;;;;;;;19.90;99.90;;;;;;5058010;28;19955;-80
2022/10/22 14:05:08;;;;;;;;;;;19.90;99.90;;;;;;5057318;28;19991;-79
2022/10/22 14:07:35;;;;;;;;;;;19.80;99.90;;;;;;5054089;28;19993;-79
2022/10/22 14:10:02;;;;;;;;;;;19.80;99.90;;;;;;5057557;28;19928;-79
2022/10/22 14:12:30;;;;;;;;;;;19.80;99.90;;;;;;5062427;28;20384;-79
2022/10/22 14:14:58;;;;;;;;;;;19.70;99.90;;;;;;5047880;28;19967;-79
2022/10/22 14:17:26;;;;;;;;;;;19.50;99.90;;;;;;5061744;28;19933;-78
2022/10/22 14:19:53;;;;;;;;;;;19.50;99.90;;;;;;5047782;28;19983;-79
2022/10/22 14:22:20;;;;;;;;;;;19.40;99.90;;;;;;5056605;28;20280;-78
2022/10/22 14:24:48;;;;;;;;;;;19.30;99.90;;;;;;5048396;28;19925;-78
2022/10/22 14:27:15;;;;;;;;;;;19.20;99.90;;;;;;5050322;28;19932;-78
2022/10/22 14:29:42;;;;;;;;;;;19.20;99.90;;;;;;5048858;28;19925;-78
2022/10/22 14:32:15;;;;;;;;;;;19.20;99.90;;;;;;5052030;28;20465;-78
2022/10/22 14:34:42;;;;;;;;;;;19.20;99.90;;;;;;5054600;28;20062;-78
2022/10/22 14:37:13;;;;;;;;;;;19.20;99.90;;;;;;5054504;28;19929;-79
2022/10/22 14:39:41;;;;;;;;;;;19.20;99.90;;;;;;5054174;28;19986;-79
2022/10/22 14:42:09;;;;;;;;;;;19.20;99.90;;;;;;5053662;28;19933;-79
2022/10/22 14:44:36;;;;;;;;;;;19.20;99.90;;;;;;5051953;28;19925;-79
2022/10/22 14:47:04;;;;;;;;;;;19.20;99.90;;;;;;5057419;28;19928;-79
2022/10/22 14:49:32;;;;;;;;;;;19.20;99.90;;;;;;5048327;28;19990;-79
2022/10/22 14:51:59;;;;;;;;;;;19.20;99.90;;;;;;5054842;28;20002;-78
2022/10/22 14:54:26;;;;;;;;;;;19.20;99.90;;;;;;5054624;28;19980;-77
2022/10/22 14:56:53;;;;;;;;;;;19.20;99.90;;;;;;5050227;28;19955;-77
2022/10/22 14:59:21;;;;;;;;;;;19.20;99.90;;;;;;5050594;28;20368;-77
2022/10/22 15:01:48;;;;;;;;;;;19.20;99.90;;;;;;5051542;28;19931;-77
2022/10/22 15:04:16;;;;;;;;;;;19.20;99.90;;;;;;5051918;28;19928;-78
2022/10/22 15:06:45;;;;;;;;;;;19.20;99.90;;;;;;5053294;28;20347;-78
2022/10/22 15:09:13;;;;;;;;;;;19.10;99.90;;;;;;5054150;28;19931;-78
2022/10/22 15:11:41;;;;;;;;;;;19.10;99.90;;;;;;5073935;28;19925;-77
2022/10/22 15:14:08;;;;;;;;;;;19.10;99.90;;;;;;5075170;28;19947;-77
2022/10/22 15:16:36;;;;;;;;;;;19.10;99.90;;;;;;5072200;28;19929;-78
2022/10/22 15:19:03;;;;;;;;;;;19.10;99.90;;;;;;5074209;28;20434;-78
2022/10/22 15:21:30;;;;;;;;;;;19.10;99.90;;;;;;5070242;28;19932;-77
2022/10/22 15:23:59;;;;;;;;;;;19.00;99.90;;;;;;5071068;28;19928;-77
2022/10/22 15:26:26;;;;;;;;;;;19.00;99.90;;;;;;5068777;28;19974;-76
2022/10/22 15:28:53;;;;;;;;;;;18.90;99.90;;;;;;5070270;28;19928;-76
2022/10/22 15:31:40;;;;;;;;;;;18.90;99.90;;;;;;5066853;28;20019;-77
2022/10/22 15:34:08;;;;;;;;;;;18.90;99.90;;;;;;5052964;28;19954;-78
2022/10/22 15:36:35;;;;;;;;;;;18.80;99.90;;;;;;5054947;28;19924;-79
2022/10/22 15:39:08;;;;;;;;;;;18.70;99.90;;;;;;5061087;28;20015;-78
2022/10/22 15:41:35;;;;;;;;;;;18.60;99.90;;;;;;5054247;28;19929;-78
2022/10/22 15:44:02;;;;;;;;;;;18.50;99.90;;;;;;5051036;28;19928;-78